createdAt,value
2023-09-19T00:00:11.153Z,9.40
2023-09-19T00:01:12.178Z,12.08
2023-09-19T00:02:11.298Z,11.62
2023-09-19T00:03:11.290Z,6.70
2023-09-19T00:04:14.226Z,13.68
2023-09-19T00:05:11.148Z,18.30
2023-09-19T00:06:11.159Z,10.36
2023-09-19T00:07:11.209Z,16.40
2023-09-19T00:08:11.148Z,7.30
2023-09-19T00:09:11.145Z,9.80
2023-09-19T00:10:11.192Z,6.94
2023-09-19T00:11:11.169Z,10.36
2023-09-19T00:12:11.148Z,9.42
2023-09-19T00:13:11.226Z,14.32
2023-09-19T00:14:13.159Z,13.26
2023-09-19T00:15:11.170Z,11.88
2023-09-19T00:16:13.402Z,27.80
2023-09-19T00:17:12.242Z,13.90
2023-09-19T00:18:13.153Z,11.50
2023-09-19T00:19:13.205Z,10.36
2023-09-19T00:20:12.154Z,11.62
2023-09-19T00:21:11.158Z,13.90
2023-09-19T00:22:11.240Z,18.04
2023-09-19T00:23:13.069Z,11.88
2023-09-19T00:24:11.162Z,11.36
2023-09-19T00:25:11.079Z,7.86
2023-09-19T00:26:11.076Z,9.72
2023-09-19T00:27:11.077Z,15.46
2023-09-19T00:28:11.126Z,12.08
2023-09-19T00:29:13.068Z,10.90
2023-09-19T00:30:11.072Z,15.92
2023-09-19T00:31:12.213Z,12.80
2023-09-19T00:32:11.067Z,6.54
2023-09-19T00:33:12.069Z,12.06
2023-09-19T00:34:15.106Z,8.30
2023-09-19T00:35:11.068Z,10.14
2023-09-19T00:36:11.072Z,9.50
2023-09-19T00:37:11.090Z,10.68
2023-09-19T00:38:11.072Z,11.96
2023-09-19T00:39:13.072Z,14.78
2023-09-19T00:40:11.105Z,12.70
2023-09-19T00:41:11.082Z,9.14
2023-09-19T00:42:11.070Z,8.06
2023-09-19T00:43:11.119Z,11.70
2023-09-19T00:44:11.072Z,10.50
2023-09-19T00:45:13.164Z,19.40
2023-09-19T00:46:11.212Z,10.84
2023-09-19T00:47:11.199Z,12.66
2023-09-19T00:48:13.274Z,11.66
2023-09-19T00:49:11.124Z,12.98
2023-09-19T00:50:12.106Z,9.92
2023-09-19T00:51:11.077Z,17.86
2023-09-19T00:52:11.097Z,12.18
2023-09-19T00:53:14.100Z,15.30
2023-09-19T00:54:11.081Z,9.84
2023-09-19T00:55:12.119Z,11.26
2023-09-19T00:56:12.077Z,9.34
2023-09-19T00:57:11.082Z,12.32
2023-09-19T00:58:11.142Z,11.26
2023-09-19T00:59:11.078Z,10.86
2023-09-19T01:00:11.082Z,10.92
2023-09-19T01:01:11.118Z,10.96
2023-09-19T01:02:11.175Z,17.12
2023-09-19T01:03:11.185Z,15.78
2023-09-19T01:04:11.344Z,12.52
2023-09-19T01:05:11.085Z,13.38
2023-09-19T01:06:11.092Z,19.48
2023-09-19T01:07:11.134Z,13.44
2023-09-19T01:08:11.088Z,13.88
2023-09-19T01:09:11.092Z,14.50
2023-09-19T01:10:15.143Z,9.72
2023-09-19T01:11:19.098Z,9.06
2023-09-19T01:12:11.096Z,14.40
2023-09-19T01:13:19.106Z,10.86
2023-09-19T01:14:21.100Z,17.36
2023-09-19T01:15:19.093Z,9.34
2023-09-19T01:16:18.141Z,11.68
2023-09-19T01:17:20.128Z,10.12
2023-09-19T01:18:19.097Z,15.62
2023-09-19T01:19:19.131Z,10.66
2023-09-19T01:20:20.099Z,15.48
2023-09-19T01:21:21.095Z,13.54
2023-09-19T01:22:19.167Z,14.96
2023-09-19T01:23:20.097Z,11.44
2023-09-19T01:24:19.104Z,12.26
2023-09-19T01:25:21.195Z,17.66
2023-09-19T01:26:19.118Z,9.30
2023-09-19T01:27:21.093Z,13.24
2023-09-19T01:28:19.136Z,11.02
2023-09-19T01:29:21.118Z,8.26
2023-09-19T01:30:18.102Z,5.02
2023-09-19T01:31:12.166Z,9.14
2023-09-19T01:32:11.346Z,9.60
2023-09-19T01:33:11.166Z,10.88
2023-09-19T01:34:11.192Z,14.46
2023-09-19T01:35:11.125Z,15.96
2023-09-19T01:36:11.113Z,13.38
2023-09-19T01:37:11.126Z,18.58
2023-09-19T01:38:11.097Z,8.94
2023-09-19T01:39:15.160Z,9.86
2023-09-19T01:40:19.174Z,12.80
2023-09-19T01:41:18.111Z,16.38
2023-09-19T01:42:21.105Z,10.54
2023-09-19T01:43:21.154Z,11.06
2023-09-19T01:44:18.118Z,10.76
2023-09-19T01:45:18.110Z,8.18
2023-09-19T01:46:19.144Z,18.30
2023-09-19T01:47:19.107Z,12.56
2023-09-19T01:48:19.110Z,12.02
2023-09-19T01:49:19.121Z,15.20
2023-09-19T01:50:19.110Z,12.08
2023-09-19T01:51:11.106Z,16.64
2023-09-19T01:52:14.160Z,6.52
2023-09-19T01:53:21.110Z,9.96
2023-09-19T01:54:12.113Z,9.26
2023-09-19T01:55:12.168Z,9.62
2023-09-19T01:56:13.149Z,10.90
2023-09-19T01:57:21.116Z,11.12
2023-09-19T01:58:18.125Z,11.54
2023-09-19T01:59:17.127Z,14.14
2023-09-19T02:00:14.120Z,11.44
2023-09-19T02:01:11.205Z,7.38
2023-09-19T02:02:11.210Z,11.88
2023-09-19T02:03:11.203Z,10.64
2023-09-19T02:04:11.153Z,10.00
2023-09-19T02:05:11.119Z,10.02
2023-09-19T02:06:14.137Z,7.90
2023-09-19T02:07:13.137Z,11.76
2023-09-19T02:08:11.112Z,10.86
2023-09-19T02:09:11.118Z,7.98
2023-09-19T02:10:11.165Z,15.92
2023-09-19T02:11:11.115Z,11.72
2023-09-19T02:12:11.120Z,10.50
2023-09-19T02:13:11.135Z,10.38
2023-09-19T02:14:13.118Z,10.34
2023-09-19T02:15:12.126Z,6.02
2023-09-19T02:16:11.166Z,16.22
2023-09-19T02:17:14.117Z,6.36
2023-09-19T02:18:11.128Z,7.02
2023-09-19T02:19:11.190Z,9.10
2023-09-19T02:20:14.122Z,13.42
2023-09-19T02:21:11.159Z,21.86
2023-09-19T02:22:15.168Z,23.08
2023-09-19T02:23:11.127Z,13.26
2023-09-19T02:24:11.124Z,14.92
2023-09-19T02:25:11.157Z,7.42
2023-09-19T02:26:11.134Z,4.94
2023-09-19T02:27:11.126Z,8.30
2023-09-19T02:28:11.162Z,8.40
2023-09-19T02:29:11.132Z,14.66
2023-09-19T02:30:11.126Z,10.00
2023-09-19T02:31:11.219Z,8.00
2023-09-19T02:32:11.203Z,11.24
2023-09-19T02:33:11.147Z,11.34
2023-09-19T02:34:11.177Z,8.28
2023-09-19T02:35:11.145Z,8.12
2023-09-19T02:36:11.129Z,8.22
2023-09-19T02:37:11.156Z,6.96
2023-09-19T02:38:12.143Z,8.20
2023-09-19T02:39:11.133Z,10.62
2023-09-19T02:40:15.156Z,10.12
2023-09-19T02:41:11.140Z,12.00
2023-09-19T02:42:11.137Z,7.34
2023-09-19T02:43:11.198Z,12.28
2023-09-19T02:44:12.153Z,11.22
2023-09-19T02:45:11.138Z,6.88
2023-09-19T02:46:11.290Z,13.88
2023-09-19T02:47:11.235Z,11.32
2023-09-19T02:48:11.202Z,10.72
2023-09-19T02:49:11.251Z,6.72
2023-09-19T02:50:11.145Z,6.50
2023-09-19T02:51:11.139Z,11.68
2023-09-19T02:52:12.234Z,12.02
2023-09-19T02:53:11.144Z,8.44
2023-09-19T02:54:11.150Z,10.68
2023-09-19T02:55:16.169Z,10.78
2023-09-19T02:56:11.161Z,11.74
2023-09-19T02:57:11.154Z,12.92
2023-09-19T02:58:12.280Z,13.82
2023-09-19T02:59:11.145Z,16.64
2023-09-19T03:00:11.161Z,9.94
2023-09-19T03:01:12.227Z,15.66
2023-09-19T03:02:11.224Z,16.78
2023-09-19T03:03:13.240Z,13.66
2023-09-19T03:04:11.150Z,19.12
2023-09-19T03:05:11.145Z,11.24
2023-09-19T03:06:11.196Z,18.10
2023-09-19T03:07:11.149Z,13.62
2023-09-19T03:08:11.145Z,13.78
2023-09-19T03:09:15.154Z,10.48
2023-09-19T03:10:11.156Z,14.72
2023-09-19T03:11:14.229Z,14.90
2023-09-19T03:12:11.152Z,14.30
2023-09-19T03:13:11.157Z,9.00
2023-09-19T03:14:11.161Z,12.78
2023-09-19T03:15:11.153Z,10.56
2023-09-19T03:16:11.204Z,8.14
2023-09-19T03:17:11.281Z,13.90
2023-09-19T03:18:11.212Z,17.02
2023-09-19T03:19:11.161Z,20.28
2023-09-19T03:20:13.154Z,10.26
2023-09-19T03:21:11.857Z,13.38
2023-09-19T03:22:11.065Z,14.84
2023-09-19T03:23:11.064Z,19.56
2023-09-19T03:24:11.069Z,12.82
2023-09-19T03:25:12.177Z,19.52
2023-09-19T03:26:11.065Z,10.12
2023-09-19T03:27:11.063Z,14.12
2023-09-19T03:28:12.076Z,11.88
2023-09-19T03:29:12.076Z,14.26
2023-09-19T03:30:13.070Z,11.90
2023-09-19T03:31:11.090Z,11.22
2023-09-19T03:32:11.068Z,19.82
2023-09-19T03:33:11.069Z,11.52
2023-09-19T03:34:11.066Z,10.18
2023-09-19T03:35:11.072Z,19.34
2023-09-19T03:36:11.080Z,15.78
2023-09-19T03:37:11.069Z,13.32
2023-09-19T03:38:11.075Z,9.40
2023-09-19T03:39:11.080Z,18.46
2023-09-19T03:40:11.074Z,13.00
2023-09-19T03:41:11.073Z,18.56
2023-09-19T03:42:11.076Z,8.46
2023-09-19T03:43:11.073Z,10.14
2023-09-19T03:44:11.084Z,16.28
2023-09-19T03:45:11.087Z,13.82
2023-09-19T03:46:11.113Z,13.88
2023-09-19T03:47:11.239Z,22.94
2023-09-19T03:48:13.096Z,16.38
2023-09-19T03:49:11.096Z,13.70
2023-09-19T03:50:11.078Z,14.66
2023-09-19T03:51:11.082Z,22.60
2023-09-19T03:52:11.082Z,9.52
2023-09-19T03:53:12.092Z,8.44
2023-09-19T03:54:11.083Z,11.66
2023-09-19T03:55:11.138Z,17.78
2023-09-19T03:56:11.080Z,18.98
2023-09-19T03:57:11.083Z,14.98
2023-09-19T03:58:11.092Z,14.02
2023-09-19T03:59:11.083Z,18.26
2023-09-19T04:00:15.084Z,15.04
2023-09-19T04:01:11.127Z,10.44
2023-09-19T04:02:15.085Z,13.36
2023-09-19T04:03:11.153Z,15.82
2023-09-19T04:04:13.087Z,14.38
2023-09-19T04:05:11.093Z,18.00
2023-09-19T04:06:11.087Z,10.82
2023-09-19T04:07:11.081Z,12.04
2023-09-19T04:08:11.094Z,17.52
2023-09-19T04:09:12.699Z,19.46
2023-09-19T04:10:11.089Z,14.84
2023-09-19T04:11:11.088Z,20.74
2023-09-19T04:12:11.089Z,17.80
2023-09-19T04:13:12.102Z,19.24
2023-09-19T04:14:11.090Z,16.40
2023-09-19T04:15:11.096Z,19.46
2023-09-19T04:16:11.143Z,13.04
2023-09-19T04:17:12.150Z,10.52
2023-09-19T04:18:11.189Z,8.78
2023-09-19T04:19:11.096Z,12.00
2023-09-19T04:20:11.091Z,15.48
2023-09-19T04:21:11.118Z,14.18
2023-09-19T04:22:11.095Z,17.18
2023-09-19T04:23:13.057Z,18.00
2023-09-19T04:24:11.097Z,10.30
2023-09-19T04:25:11.099Z,13.70
2023-09-19T04:26:11.097Z,18.06
2023-09-19T04:27:11.098Z,11.72
2023-09-19T04:28:11.103Z,8.62
2023-09-19T04:29:11.103Z,14.50
2023-09-19T04:30:15.116Z,15.68
2023-09-19T04:31:11.105Z,18.06
2023-09-19T04:32:11.216Z,12.46
2023-09-19T04:33:11.148Z,11.46
2023-09-19T04:34:11.137Z,13.92
2023-09-19T04:35:13.108Z,15.50
2023-09-19T04:36:34.692Z,15.70
2023-09-19T04:37:13.303Z,15.58
2023-09-19T04:38:11.113Z,14.12
2023-09-19T04:39:11.101Z,14.02
2023-09-19T04:40:13.110Z,15.82
2023-09-19T04:41:11.112Z,11.02
2023-09-19T04:42:11.103Z,18.16
2023-09-19T04:43:11.122Z,19.88
2023-09-19T04:44:11.108Z,15.48
2023-09-19T04:45:11.163Z,15.00
2023-09-19T04:46:11.193Z,20.98
2023-09-19T04:47:11.197Z,14.12
2023-09-19T04:48:11.122Z,12.76
2023-09-19T04:49:11.120Z,10.28
2023-09-19T04:50:11.121Z,17.82
2023-09-19T04:51:11.119Z,13.26
2023-09-19T04:52:11.120Z,18.16
2023-09-19T04:53:11.119Z,17.90
2023-09-19T04:54:11.111Z,24.38
2023-09-19T04:55:11.115Z,15.28
2023-09-19T04:56:11.119Z,17.24
2023-09-19T04:57:11.111Z,22.44
2023-09-19T04:58:11.116Z,18.20
2023-09-19T04:59:11.124Z,12.30
2023-09-19T05:00:15.125Z,16.80
2023-09-19T05:01:11.113Z,13.56
2023-09-19T05:02:11.197Z,18.76
2023-09-19T05:03:11.217Z,15.14
2023-09-19T05:04:11.116Z,16.32
2023-09-19T05:05:11.178Z,13.66
2023-09-19T05:06:11.126Z,17.40
2023-09-19T05:07:11.118Z,20.48
2023-09-19T05:08:11.124Z,14.26
2023-09-19T05:09:11.149Z,21.12
2023-09-19T05:10:12.121Z,15.86
2023-09-19T05:11:11.137Z,15.78
2023-09-19T05:12:11.130Z,21.78
2023-09-19T05:13:11.130Z,19.20
2023-09-19T05:14:11.125Z,14.98
2023-09-19T05:15:11.134Z,17.12
2023-09-19T05:16:11.284Z,14.48
2023-09-19T05:17:11.149Z,13.44
2023-09-19T05:18:11.145Z,16.14
2023-09-19T05:19:11.129Z,14.92
2023-09-19T05:20:15.151Z,13.68
2023-09-19T05:21:11.129Z,12.64
2023-09-19T05:22:11.130Z,16.54
2023-09-19T05:23:13.149Z,11.14
2023-09-19T05:24:11.637Z,12.60
2023-09-19T05:25:11.130Z,9.24
2023-09-19T05:26:11.130Z,15.88
2023-09-19T05:27:12.129Z,20.94
2023-09-19T05:28:11.134Z,12.64
2023-09-19T05:29:12.132Z,10.14
2023-09-19T05:30:11.131Z,7.50
2023-09-19T05:31:11.141Z,19.20
2023-09-19T05:32:11.276Z,8.92
2023-09-19T05:33:11.135Z,9.68
2023-09-19T05:34:11.133Z,17.16
2023-09-19T05:35:13.148Z,7.88
2023-09-19T05:36:11.131Z,13.62
2023-09-19T05:37:12.135Z,15.56
2023-09-19T05:38:13.146Z,13.38
2023-09-19T05:39:13.136Z,11.74
2023-09-19T05:40:16.134Z,22.44
2023-09-19T05:41:11.146Z,12.04
2023-09-19T05:42:11.154Z,14.48
2023-09-19T05:43:11.136Z,9.14
2023-09-19T05:44:11.163Z,8.12
2023-09-19T05:45:11.177Z,11.74
2023-09-19T05:46:11.206Z,20.08
2023-09-19T05:47:11.173Z,12.66
2023-09-19T05:48:13.181Z,10.34
2023-09-19T05:49:11.140Z,9.48
2023-09-19T05:50:11.140Z,11.84
2023-09-19T05:51:11.142Z,13.10
2023-09-19T05:52:11.141Z,12.74
2023-09-19T05:53:11.142Z,7.66
2023-09-19T05:54:11.147Z,18.00
2023-09-19T05:55:11.142Z,12.10
2023-09-19T05:56:11.157Z,12.68
2023-09-19T05:57:11.160Z,12.02
2023-09-19T05:58:11.359Z,8.20
2023-09-19T05:59:11.141Z,7.74
2023-09-19T06:00:13.144Z,11.38
2023-09-19T06:01:12.203Z,15.80
2023-09-19T06:02:11.201Z,13.52
2023-09-19T06:03:11.179Z,9.98
2023-09-19T06:04:11.189Z,10.14
2023-09-19T06:05:11.145Z,8.20
2023-09-19T06:06:11.142Z,17.08
2023-09-19T06:07:11.151Z,6.34
2023-09-19T06:08:12.150Z,15.52
2023-09-19T06:09:13.143Z,9.04
2023-09-19T06:10:13.149Z,16.72
2023-09-19T06:11:14.205Z,10.22
2023-09-19T06:12:11.150Z,11.76
2023-09-19T06:14:11.161Z,8.60
2023-09-19T06:15:13.256Z,8.38
2023-09-19T06:16:11.301Z,7.60
2023-09-19T06:17:11.220Z,11.22
2023-09-19T06:18:13.236Z,7.52
2023-09-19T06:19:13.282Z,6.34
2023-09-19T06:20:11.161Z,10.18
2023-09-19T06:21:12.075Z,10.52
2023-09-19T06:22:11.058Z,14.20
2023-09-19T06:23:11.064Z,15.42
2023-09-19T06:24:11.062Z,12.10
2023-09-19T06:25:11.060Z,8.56
2023-09-19T06:26:11.066Z,10.84
2023-09-19T06:27:12.062Z,9.00
2023-09-19T06:28:11.060Z,13.70
2023-09-19T06:29:12.074Z,9.16
2023-09-19T06:30:11.076Z,17.10
2023-09-19T06:31:14.065Z,10.78
2023-09-19T06:32:13.133Z,17.88
2023-09-19T06:33:11.077Z,5.62
2023-09-19T06:34:11.065Z,14.28
2023-09-19T06:35:12.068Z,9.30
2023-09-19T06:36:11.074Z,7.64
2023-09-19T06:37:11.067Z,8.18
2023-09-19T06:38:11.074Z,11.58
2023-09-19T06:39:11.079Z,13.86
2023-09-19T06:40:13.091Z,8.08
2023-09-19T06:41:11.077Z,12.70
2023-09-19T06:42:11.087Z,14.82
2023-09-19T06:43:11.078Z,9.54
2023-09-19T06:44:11.080Z,11.18
2023-09-19T06:45:11.082Z,11.56
2023-09-19T06:46:12.093Z,16.68
2023-09-19T06:47:11.076Z,11.76
2023-09-19T06:48:11.265Z,7.88
2023-09-19T06:49:11.075Z,13.18
2023-09-19T06:50:11.100Z,11.30
2023-09-19T06:51:11.100Z,8.34
2023-09-19T06:52:11.087Z,15.00
2023-09-19T06:53:11.099Z,11.06
2023-09-19T06:54:11.091Z,6.62
2023-09-19T06:55:11.100Z,6.96
2023-09-19T06:56:11.077Z,7.36
2023-09-19T06:57:11.087Z,11.62
2023-09-19T06:58:11.408Z,10.80
2023-09-19T06:59:11.082Z,10.46
2023-09-19T07:00:14.088Z,10.92
2023-09-19T07:01:11.130Z,10.82
2023-09-19T07:02:11.163Z,7.50
2023-09-19T07:03:14.258Z,7.60
2023-09-19T07:04:11.098Z,9.80
2023-09-19T07:05:11.084Z,9.80
2023-09-19T07:06:11.085Z,9.04
2023-09-19T07:07:11.093Z,13.72
2023-09-19T07:08:11.088Z,12.66
2023-09-19T07:09:11.099Z,13.22
2023-09-19T07:10:11.131Z,12.06
2023-09-19T07:11:11.085Z,7.74
2023-09-19T07:12:11.092Z,11.06
2023-09-19T07:13:13.095Z,6.58
2023-09-19T07:14:11.104Z,14.30
2023-09-19T07:15:11.089Z,10.30
2023-09-19T07:16:11.151Z,9.22
2023-09-19T07:17:11.137Z,14.50
2023-09-19T07:18:11.142Z,9.44
2023-09-19T07:19:11.104Z,11.92
2023-09-19T07:20:12.106Z,10.66
2023-09-19T07:21:11.095Z,11.36
2023-09-19T07:22:11.106Z,11.46
2023-09-19T07:23:11.094Z,7.66
2023-09-19T07:24:11.099Z,9.82
2023-09-19T07:25:11.110Z,6.48
2023-09-19T07:26:11.097Z,10.70
2023-09-19T07:27:11.098Z,12.86
2023-09-19T07:28:11.104Z,9.58
2023-09-19T07:29:11.103Z,10.58
2023-09-19T07:30:11.099Z,18.30
2023-09-19T07:31:11.237Z,7.74
2023-09-19T07:32:11.255Z,11.82
2023-09-19T07:33:11.132Z,6.68
2023-09-19T07:34:11.105Z,12.46
2023-09-19T07:35:12.108Z,16.12
2023-09-19T07:36:12.104Z,11.52
2023-09-19T07:37:11.102Z,11.76
2023-09-19T07:38:11.105Z,11.78
2023-09-19T07:39:22.139Z,19.06
2023-09-19T07:40:16.256Z,10.52
2023-09-19T07:41:11.108Z,11.34
2023-09-19T07:42:12.105Z,7.58
2023-09-19T07:43:11.114Z,8.82
2023-09-19T07:44:11.111Z,16.44
2023-09-19T07:45:11.107Z,8.26
2023-09-19T07:46:11.151Z,10.28
2023-09-19T07:47:11.683Z,15.90
2023-09-19T07:48:11.130Z,12.18
2023-09-19T07:49:11.273Z,10.02
2023-09-19T07:50:12.129Z,10.02
2023-09-19T07:51:11.114Z,10.48
2023-09-19T07:52:11.156Z,19.02
2023-09-19T07:53:11.112Z,13.78
2023-09-19T07:54:11.124Z,14.18
2023-09-19T07:55:13.115Z,8.44
2023-09-19T07:56:11.207Z,14.34
2023-09-19T07:57:11.131Z,8.80
2023-09-19T07:58:12.154Z,8.58
2023-09-19T07:59:11.117Z,11.40
2023-09-19T08:00:11.129Z,13.20
2023-09-19T08:01:11.168Z,13.20
2023-09-19T08:02:11.154Z,14.20
2023-09-19T08:03:16.075Z,12.02
2023-09-19T08:04:13.375Z,7.38
2023-09-19T08:05:15.197Z,9.38
2023-09-19T08:06:11.122Z,14.88
2023-09-19T08:07:11.129Z,11.58
2023-09-19T08:08:11.121Z,5.92
2023-09-19T08:09:13.120Z,11.30
2023-09-19T08:10:12.129Z,12.28
2023-09-19T08:11:16.118Z,9.68
2023-09-19T08:12:11.124Z,9.48
2023-09-19T08:13:11.122Z,28.22
2023-09-19T08:14:12.125Z,8.10
2023-09-19T08:15:11.129Z,10.16
2023-09-19T08:16:13.256Z,7.68
2023-09-19T08:17:15.176Z,7.50
2023-09-19T08:18:11.231Z,8.26
2023-09-19T08:19:11.125Z,6.22
2023-09-19T08:20:11.131Z,5.70
2023-09-19T08:21:12.180Z,15.12
2023-09-19T08:22:11.125Z,11.60
2023-09-19T08:23:11.146Z,13.96
2023-09-19T08:24:11.127Z,7.28
2023-09-19T08:25:12.122Z,7.60
2023-09-19T08:26:13.129Z,9.10
2023-09-19T08:27:13.136Z,7.78
2023-09-19T08:28:13.151Z,7.88
2023-09-19T08:29:15.139Z,9.48
2023-09-19T08:30:11.139Z,11.54
2023-09-19T08:31:11.201Z,12.40
2023-09-19T08:32:11.182Z,32.62
2023-09-19T08:33:11.166Z,22.26
2023-09-19T08:34:11.162Z,22.10
2023-09-19T08:35:12.201Z,25.30
2023-09-19T08:36:11.144Z,21.78
2023-09-19T08:37:11.136Z,11.04
2023-09-19T08:38:11.136Z,18.90
2023-09-19T08:39:11.142Z,11.22
2023-09-19T08:40:13.135Z,13.74
2023-09-19T08:41:11.233Z,6.52
2023-09-19T08:42:11.139Z,11.58
2023-09-19T08:43:11.140Z,7.30
2023-09-19T08:44:11.191Z,22.12
2023-09-19T08:45:11.149Z,25.66
2023-09-19T08:46:13.232Z,23.36
2023-09-19T08:47:15.382Z,18.16
2023-09-19T08:48:21.234Z,14.96
2023-09-19T08:49:19.139Z,15.06
2023-09-19T08:50:19.143Z,14.54
2023-09-19T08:51:16.148Z,11.28
2023-09-19T08:52:19.142Z,10.30
2023-09-19T08:53:16.148Z,10.28
2023-09-19T08:54:12.146Z,9.60
2023-09-19T08:55:14.159Z,18.28
2023-09-19T08:56:11.296Z,11.94
2023-09-19T08:57:11.147Z,10.66
2023-09-19T08:58:12.147Z,12.50
2023-09-19T08:59:12.164Z,8.96
2023-09-19T09:00:15.144Z,12.36
2023-09-19T09:01:11.198Z,13.34
2023-09-19T09:02:16.200Z,11.46
2023-09-19T09:03:13.162Z,7.54
2023-09-19T09:04:14.632Z,11.02
2023-09-19T09:05:11.151Z,11.32
2023-09-19T09:06:11.151Z,9.50
2023-09-19T09:07:15.153Z,9.68
2023-09-19T09:08:11.149Z,9.30
2023-09-19T09:09:11.151Z,10.00
2023-09-19T09:10:11.152Z,13.04
2023-09-19T09:11:13.756Z,16.38
2023-09-19T09:12:13.155Z,11.70
2023-09-19T09:13:11.163Z,14.20
2023-09-19T09:14:12.268Z,16.60
2023-09-19T09:15:11.157Z,7.88
2023-09-19T09:16:11.271Z,5.24
2023-09-19T09:17:11.230Z,13.22
2023-09-19T09:18:11.223Z,14.08
2023-09-19T09:19:11.166Z,8.72
2023-09-19T09:20:13.157Z,10.52
2023-09-19T09:21:13.984Z,17.70
2023-09-19T09:22:11.074Z,16.42
2023-09-19T09:23:11.082Z,13.22
2023-09-19T09:24:19.066Z,8.70
2023-09-19T09:25:11.064Z,13.88
2023-09-19T09:26:14.068Z,16.16
2023-09-19T09:27:13.070Z,16.92
2023-09-19T09:28:11.071Z,13.30
2023-09-19T09:29:11.078Z,5.12
2023-09-19T09:30:16.070Z,10.46
2023-09-19T09:31:22.127Z,7.20
2023-09-19T09:32:21.118Z,8.38
2023-09-19T09:33:13.619Z,2.94
2023-09-19T09:34:11.073Z,5.16
2023-09-19T09:35:11.141Z,5.14
2023-09-19T09:36:11.079Z,6.90
2023-09-19T09:37:15.204Z,5.40
2023-09-19T09:38:13.089Z,7.18
2023-09-19T09:39:15.119Z,7.90
2023-09-19T09:40:15.159Z,15.04
2023-09-19T09:41:13.113Z,17.24
2023-09-19T09:42:15.079Z,9.62
2023-09-19T09:43:19.080Z,10.94
2023-09-19T09:44:15.083Z,13.34
2023-09-19T09:45:23.075Z,6.70
2023-09-19T09:46:20.130Z,7.86
2023-09-19T09:47:15.163Z,6.48
2023-09-19T09:48:15.221Z,7.10
2023-09-19T09:49:15.112Z,3.56
2023-09-19T09:50:21.074Z,7.44
2023-09-19T09:51:12.077Z,10.80
2023-09-19T09:52:15.085Z,3.64
2023-09-19T09:53:21.082Z,4.30
2023-09-19T09:54:16.078Z,6.34
2023-09-19T09:55:13.079Z,3.80
2023-09-19T09:56:13.083Z,6.92
2023-09-19T09:57:15.456Z,6.62
2023-09-19T09:58:17.088Z,6.02
2023-09-19T09:59:11.087Z,9.04
2023-09-19T10:00:15.103Z,13.08
2023-09-19T10:01:15.085Z,11.40
2023-09-19T10:02:12.497Z,8.30
2023-09-19T10:03:19.224Z,8.58
2023-09-19T10:04:11.130Z,4.18
2023-09-19T10:05:19.106Z,7.62
2023-09-19T10:06:15.089Z,4.52
2023-09-19T10:07:16.090Z,4.28
2023-09-19T10:08:14.445Z,7.74
2023-09-19T10:09:15.096Z,8.42
2023-09-19T10:10:15.089Z,5.64
2023-09-19T10:11:18.097Z,4.90
2023-09-19T10:12:13.101Z,10.66
2023-09-19T10:13:11.092Z,8.70
2023-09-19T10:14:11.218Z,2.30
2023-09-19T10:15:12.100Z,6.78
2023-09-19T10:16:12.108Z,7.16
2023-09-19T10:17:12.114Z,5.92
2023-09-19T10:18:11.167Z,6.96
2023-09-19T10:19:11.096Z,6.16
2023-09-19T10:20:19.113Z,7.48
2023-09-19T10:21:12.096Z,8.06
2023-09-19T10:22:11.103Z,3.42
2023-09-19T10:23:14.095Z,3.46
2023-09-19T10:24:12.100Z,8.46
2023-09-19T10:25:12.106Z,4.26
2023-09-19T10:26:11.172Z,3.88
2023-09-19T10:27:11.106Z,6.18
2023-09-19T10:28:14.109Z,5.02
2023-09-19T10:29:12.115Z,1.86
2023-09-19T10:30:13.121Z,10.56
2023-09-19T10:31:11.101Z,3.36
2023-09-19T10:32:15.185Z,6.74
2023-09-19T10:33:15.206Z,6.98
2023-09-19T10:34:11.126Z,5.12
2023-09-19T10:35:11.191Z,2.72
2023-09-19T10:36:11.107Z,2.50
2023-09-19T10:37:13.107Z,7.42
2023-09-19T10:38:12.162Z,6.04
2023-09-19T10:39:11.110Z,2.92
2023-09-19T10:40:13.113Z,1.56
2023-09-19T10:41:11.168Z,4.60
2023-09-19T10:42:14.108Z,3.64
2023-09-19T10:43:13.107Z,3.28
2023-09-19T10:44:11.117Z,2.40
2023-09-19T10:45:15.133Z,2.66
2023-09-19T10:46:11.155Z,2.58
2023-09-19T10:47:12.129Z,1.08
2023-09-19T10:48:12.114Z,1.28
2023-09-19T10:49:11.123Z,4.88
2023-09-19T10:50:22.190Z,3.56
2023-09-19T10:51:17.115Z,3.12
2023-09-19T10:52:13.120Z,3.94
2023-09-19T10:53:11.144Z,2.46
2023-09-19T10:54:16.123Z,3.56
2023-09-19T10:55:15.166Z,3.08
2023-09-19T10:56:20.179Z,4.12
2023-09-19T10:57:14.115Z,2.98
2023-09-19T10:58:19.125Z,4.70
2023-09-19T10:59:11.382Z,6.02
2023-09-19T11:00:15.129Z,1.76
2023-09-19T11:01:15.184Z,8.34
2023-09-19T11:02:18.200Z,6.26
2023-09-19T11:03:19.256Z,3.26
2023-09-19T11:04:20.312Z,2.46
2023-09-19T11:05:15.195Z,2.12
2023-09-19T11:06:16.123Z,2.52
2023-09-19T11:07:15.125Z,1.82
2023-09-19T11:08:11.126Z,1.82
2023-09-19T11:09:15.122Z,1.72
2023-09-19T11:10:19.120Z,2.08
2023-09-19T11:11:19.125Z,1.74
2023-09-19T11:12:11.140Z,2.18
2023-09-19T11:13:21.127Z,2.06
2023-09-19T11:14:21.125Z,1.14
2023-09-19T11:15:11.127Z,5.32
2023-09-19T11:16:15.142Z,1.58
2023-09-19T11:17:21.133Z,1.80
2023-09-19T11:18:19.128Z,3.10
2023-09-19T11:19:12.130Z,1.48
2023-09-19T11:20:19.136Z,3.94
2023-09-19T11:21:19.128Z,3.16
2023-09-19T11:22:11.128Z,5.68
2023-09-19T11:23:19.152Z,3.18
2023-09-19T11:24:21.157Z,1.38
2023-09-19T11:25:19.134Z,2.42
2023-09-19T11:26:19.132Z,1.86
2023-09-19T11:27:13.141Z,1.08
2023-09-19T11:28:19.184Z,2.46
2023-09-19T11:29:19.136Z,4.28
2023-09-19T11:30:19.142Z,3.40
2023-09-19T11:31:21.185Z,3.46
2023-09-19T11:32:11.265Z,5.48
2023-09-19T11:33:19.160Z,4.70
2023-09-19T11:34:21.151Z,4.68
2023-09-19T11:35:11.166Z,2.38
2023-09-19T11:36:11.291Z,3.74
2023-09-19T11:37:21.146Z,4.66
2023-09-19T11:38:15.141Z,2.56
2023-09-19T11:39:21.139Z,2.82
2023-09-19T11:40:13.138Z,1.98
2023-09-19T11:41:19.147Z,2.10
2023-09-19T11:42:19.139Z,1.88
2023-09-19T11:43:19.140Z,2.04
2023-09-19T11:44:21.176Z,4.20
2023-09-19T11:45:15.140Z,1.90
2023-09-19T11:46:11.304Z,1.84
2023-09-19T11:47:11.227Z,2.10
2023-09-19T11:48:11.194Z,1.74
2023-09-19T11:49:12.168Z,1.96
2023-09-19T11:50:11.184Z,4.28
2023-09-19T11:51:15.146Z,5.20
2023-09-19T11:52:11.143Z,4.48
2023-09-19T11:53:11.167Z,2.60
2023-09-19T11:54:13.145Z,2.24
2023-09-19T11:55:11.149Z,1.94
2023-09-19T11:56:11.209Z,3.14
2023-09-19T11:57:11.147Z,1.48
2023-09-19T11:58:11.148Z,1.06
2023-09-19T11:59:11.175Z,3.38
2023-09-19T12:00:19.159Z,2.20
2023-09-19T12:01:15.170Z,2.02
2023-09-19T12:02:15.186Z,3.84
2023-09-19T12:03:12.249Z,5.00
2023-09-19T12:04:11.183Z,13.52
2023-09-19T12:05:11.194Z,4.48
2023-09-19T12:06:14.155Z,2.02
2023-09-19T12:07:11.154Z,2.40
2023-09-19T12:08:15.185Z,1.10
2023-09-19T12:09:16.249Z,4.26
2023-09-19T12:10:11.154Z,1.96
2023-09-19T12:11:15.169Z,1.58
2023-09-19T12:12:11.167Z,10.26
2023-09-19T12:13:11.159Z,4.26
2023-09-19T12:14:11.200Z,6.16
2023-09-19T12:15:11.169Z,4.50
2023-09-19T12:16:15.175Z,1.38
2023-09-19T12:17:11.206Z,1.10
2023-09-19T12:18:11.196Z,5.32
2023-09-19T12:19:19.172Z,2.18
2023-09-19T12:20:15.346Z,2.80
2023-09-19T12:21:16.061Z,1.08
2023-09-19T12:22:11.064Z,3.22
2023-09-19T12:23:15.063Z,3.98
2023-09-19T12:24:14.071Z,3.14
2023-09-19T12:25:11.066Z,1.90
2023-09-19T12:26:15.084Z,0.94
2023-09-19T12:27:11.069Z,3.06
2023-09-19T12:28:11.063Z,1.44
2023-09-19T12:29:18.147Z,1.36
2023-09-19T12:30:24.569Z,1.40
2023-09-19T12:31:14.443Z,1.22
2023-09-19T12:32:11.072Z,2.88
2023-09-19T12:33:20.069Z,1.40
2023-09-19T12:34:11.093Z,2.16
2023-09-19T12:35:23.130Z,3.56
2023-09-19T12:36:19.070Z,0.96
2023-09-19T12:37:15.083Z,2.66
2023-09-19T12:38:11.152Z,1.68
2023-09-19T12:39:18.086Z,0.92
2023-09-19T12:40:15.075Z,2.60
2023-09-19T12:41:12.121Z,2.22
2023-09-19T12:42:15.436Z,2.06
2023-09-19T12:43:11.075Z,3.50
2023-09-19T12:47:20.033Z,4.92
2023-09-19T12:48:19.158Z,8.28
2023-09-19T12:49:19.075Z,3.82
2023-09-19T12:50:13.117Z,3.16
2023-09-19T12:51:13.090Z,5.50
2023-09-19T12:52:11.082Z,2.08
2023-09-19T12:53:19.166Z,2.14
2023-09-19T12:54:11.079Z,4.56
2023-09-19T12:55:15.088Z,1.50
2023-09-19T12:56:13.097Z,0.96
2023-09-19T12:57:15.078Z,2.18
2023-09-19T12:58:15.084Z,1.26
2023-09-19T12:59:11.150Z,0.86
2023-09-19T13:00:11.084Z,1.30
2023-09-19T13:01:17.148Z,2.00
2023-09-19T13:02:17.159Z,2.44
2023-09-19T13:03:19.170Z,0.92
2023-09-19T13:04:18.098Z,1.34
2023-09-19T13:05:11.168Z,1.20
2023-09-19T13:06:11.095Z,1.52
2023-09-19T13:07:15.128Z,2.96
2023-09-19T13:08:19.823Z,1.80